Time;durP1;ratioP1;P1;durP2;ratioP2;P2;SDS_P1;SDS_P2;PMS_P1;PMS_P2;Temp;Humidity;BMP_temperature;BMP_pressure;BME280_temperature;BME280_humidity;BME280_pressure;Samples;Min_cycle;Max_cycle;Signal;HPM_P1;HPM_P2
2023/09/06 00:02:00;;;;;;;2.35;2.00;;;;;;;;;;5065986;28;43207;-71
2023/09/06 00:04:28;;;;;;;3.88;2.00;;;;;;;;;;5067407;28;40393;-70
2023/09/06 00:06:56;;;;;;;2.13;1.80;;;;;;;;;;5068416;28;41611;-70
2023/09/06 00:09:24;;;;;;;2.83;1.67;;;;;;;;;;5068339;28;42449;-71
2023/09/06 00:11:54;;;;;;;3.53;2.03;;;;;;;;;;5068168;28;41089;-71
2023/09/06 00:14:21;;;;;;;2.15;1.52;;;;;;;;;;5068411;28;42537;-71
2023/09/06 00:16:49;;;;;;;2.08;1.55;;;;;;;;;;5066919;28;41980;-71
2023/09/06 00:19:17;;;;;;;5.80;1.90;;;;;;;;;;5067609;28;40524;-71
2023/09/06 00:21:45;;;;;;;2.55;1.63;;;;;;;;;;5066720;28;42060;-70
2023/09/06 00:24:14;;;;;;;4.40;1.65;;;;;;;;;;5064610;28;40642;-70
2023/09/06 00:26:43;;;;;;;2.80;1.60;;;;;;;;;;5060417;28;41415;-71
2023/09/06 00:29:12;;;;;;;3.17;1.80;;;;;;;;;;5064432;28;42500;-70
2023/09/06 00:31:40;;;;;;;2.00;1.80;;;;;;;;;;5066792;28;39737;-70
2023/09/06 00:34:08;;;;;;;3.38;1.70;;;;;;;;;;5068081;28;42192;-70
2023/09/06 00:36:36;;;;;;;3.20;1.73;;;;;;;;;;5067442;28;41285;-70
2023/09/06 00:39:06;;;;;;;4.10;1.40;;;;;;;;;;5067095;28;39801;-71
2023/09/06 00:41:34;;;;;;;1.88;1.67;;;;;;;;;;5066332;28;41788;-70
2023/09/06 00:44:03;;;;;;;2.45;1.73;;;;;;;;;;5060590;28;41324;-70
2023/09/06 00:46:33;;;;;;;1.95;1.70;;;;;;;;;;5060841;28;40838;-71
2023/09/06 00:49:02;;;;;;;2.85;1.80;;;;;;;;;;5052639;28;42011;-70
2023/09/06 00:51:30;;;;;;;3.45;1.80;;;;;;;;;;5058015;28;40234;-71
2023/09/06 00:54:00;;;;;;;2.65;1.98;;;;;;;;;;5056983;28;40905;-70
2023/09/06 00:56:28;;;;;;;3.10;1.63;;;;;;;;;;5068183;28;41840;-70
2023/09/06 00:58:56;;;;;;;3.30;1.80;;;;;;;;;;5068237;28;40388;-70
2023/09/06 01:01:24;;;;;;;3.20;1.95;;;;;;;;;;5067125;28;42665;-70
2023/09/06 01:03:53;;;;;;;2.88;2.20;;;;;;;;;;5068376;28;43288;-70
2023/09/06 01:06:22;;;;;;;3.00;2.05;;;;;;;;;;5065573;28;40238;-70
2023/09/06 01:08:52;;;;;;;7.07;1.80;;;;;;;;;;5067591;28;42820;-70
2023/09/06 01:11:21;;;;;;;1.88;1.63;;;;;;;;;;5067774;28;40343;-70
2023/09/06 01:13:49;;;;;;;4.82;1.83;;;;;;;;;;5065768;28;40024;-70
2023/09/06 01:16:20;;;;;;;3.67;2.30;;;;;;;;;;5067691;28;42442;-70
2023/09/06 01:18:48;;;;;;;2.47;2.20;;;;;;;;;;5064413;28;39963;-70
2023/09/06 01:21:18;;;;;;;3.47;2.17;;;;;;;;;;5067490;28;42074;-70
2023/09/06 01:23:47;;;;;;;4.22;2.15;;;;;;;;;;5065715;28;40148;-70
2023/09/06 01:26:16;;;;;;;3.60;2.15;;;;;;;;;;5066978;28;40481;-70
2023/09/06 01:28:44;;;;;;;4.03;2.28;;;;;;;;;;5065559;28;40744;-70
2023/09/06 01:31:12;;;;;;;2.28;2.00;;;;;;;;;;5066547;28;41161;-70
2023/09/06 01:33:40;;;;;;;4.10;2.13;;;;;;;;;;5065295;28;41189;-70
2023/09/06 01:36:08;;;;;;;4.40;2.30;;;;;;;;;;5066046;28;40449;-71
2023/09/06 01:38:36;;;;;;;2.42;2.13;;;;;;;;;;5067039;28;40322;-70
2023/09/06 01:41:07;;;;;;;2.45;1.90;;;;;;;;;;5064327;28;41164;-70
2023/09/06 01:43:35;;;;;;;3.45;2.13;;;;;;;;;;5066419;28;42750;-71
2023/09/06 01:46:03;;;;;;;3.00;1.90;;;;;;;;;;5066342;28;40599;-70
2023/09/06 01:48:32;;;;;;;6.03;2.30;;;;;;;;;;5065408;28;40173;-70
2023/09/06 01:51:00;;;;;;;3.80;1.98;;;;;;;;;;5066017;28;38839;-70
2023/09/06 01:53:29;;;;;;;2.58;2.00;;;;;;;;;;5066924;28;41737;-70
2023/09/06 01:55:57;;;;;;;3.03;2.03;;;;;;;;;;5066173;28;41772;-70
2023/09/06 01:58:32;;;;;;;3.22;2.15;;;;;;;;;;5069129;28;40030;-70
2023/09/06 02:01:03;;;;;;;2.30;2.03;;;;;;;;;;5069801;28;40253;-71
2023/09/06 02:03:32;;;;;;;3.80;2.63;;;;;;;;;;5070155;28;41743;-70
2023/09/06 02:06:02;;;;;;;3.40;2.10;;;;;;;;;;5069622;28;38688;-70
2023/09/06 02:08:30;;;;;;;2.35;2.13;;;;;;;;;;5070868;28;42573;-71
2023/09/06 02:10:58;;;;;;;2.88;1.52;;;;;;;;;;5070280;28;39207;-71
2023/09/06 02:13:28;;;;;;;2.40;1.95;;;;;;;;;;5070400;28;41422;-71
2023/09/06 02:15:56;;;;;;;3.95;2.35;;;;;;;;;;5070614;28;42099;-71
2023/09/06 02:18:26;;;;;;;3.17;2.05;;;;;;;;;;5068889;28;39089;-70
2023/09/06 02:20:55;;;;;;;3.28;2.13;;;;;;;;;;5069425;28;40369;-70
2023/09/06 02:23:23;;;;;;;2.88;2.20;;;;;;;;;;5070558;28;41919;-70
2023/09/06 02:25:51;;;;;;;3.30;2.17;;;;;;;;;;5068685;28;39992;-70
2023/09/06 02:28:19;;;;;;;4.90;2.35;;;;;;;;;;5070560;28;41581;-70
2023/09/06 02:30:48;;;;;;;2.53;1.98;;;;;;;;;;5064377;28;43193;-70
2023/09/06 02:33:16;;;;;;;2.42;2.13;;;;;;;;;;5050530;28;40237;-70
2023/09/06 02:35:45;;;;;;;3.63;2.13;;;;;;;;;;5063597;28;43280;-70
2023/09/06 02:38:15;;;;;;;4.97;2.40;;;;;;;;;;5065843;28;39318;-70
2023/09/06 02:40:43;;;;;;;2.50;2.00;;;;;;;;;;5070102;28;41714;-70
2023/09/06 02:43:13;;;;;;;4.18;1.90;;;;;;;;;;5069496;28;42524;-70
2023/09/06 02:45:49;;;;;;;4.00;2.10;;;;;;;;;;5069724;28;39776;-70
2023/09/06 02:48:21;;;;;;;2.97;2.10;;;;;;;;;;5070494;28;41181;-69
2023/09/06 02:50:51;;;;;;;4.15;2.60;;;;;;;;;;5068699;28;40707;-70
2023/09/06 02:53:20;;;;;;;5.30;2.40;;;;;;;;;;5068016;28;40056;-70
2023/09/06 02:55:51;;;;;;;3.17;2.08;;;;;;;;;;5069441;28;42098;-70
2023/09/06 02:58:23;;;;;;;2.92;2.10;;;;;;;;;;5068855;28;39427;-70
2023/09/06 03:00:55;;;;;;;4.25;2.58;;;;;;;;;;5066493;28;41688;-70
2023/09/06 03:03:27;;;;;;;2.88;2.05;;;;;;;;;;5068377;28;40679;-70
2023/09/06 03:05:57;;;;;;;4.40;2.13;;;;;;;;;;5067818;28;41070;-70
2023/09/06 03:08:27;;;;;;;2.70;2.17;;;;;;;;;;5067011;28;41479;-70
2023/09/06 03:10:56;;;;;;;4.55;2.33;;;;;;;;;;5068013;28;41256;-70
2023/09/06 03:13:25;;;;;;;3.00;2.20;;;;;;;;;;5067922;28;39808;-70
2023/09/06 03:15:53;;;;;;;1.77;1.67;;;;;;;;;;5068856;28;40483;-70
2023/09/06 03:18:22;;;;;;;3.25;2.00;;;;;;;;;;5068535;28;38891;-70
2023/09/06 03:20:55;;;;;;;2.47;2.20;;;;;;;;;;5067551;28;40862;-70
2023/09/06 03:23:24;;;;;;;2.95;2.20;;;;;;;;;;5068185;28;40624;-70
2023/09/06 03:25:58;;;;;;;4.15;2.47;;;;;;;;;;5067998;28;40274;-69
2023/09/06 03:28:40;;;;;;;5.32;2.25;;;;;;;;;;5067482;28;41250;-70
2023/09/06 03:31:12;;;;;;;2.08;1.88;;;;;;;;;;5101835;28;40775;-70
2023/09/06 03:33:41;;;;;;;3.55;2.15;;;;;;;;;;5069269;28;41273;-70
2023/09/06 03:36:11;;;;;;;3.63;2.17;;;;;;;;;;5067372;28;41408;-70
2023/09/06 03:38:39;;;;;;;3.40;2.25;;;;;;;;;;5063442;28;40630;-70
2023/09/06 03:41:08;;;;;;;4.18;2.45;;;;;;;;;;5066216;28;40260;-70
2023/09/06 03:43:37;;;;;;;2.63;2.20;;;;;;;;;;5067284;28;41748;-70
2023/09/06 03:46:09;;;;;;;3.17;2.25;;;;;;;;;;5069494;28;41069;-70
2023/09/06 03:48:38;;;;;;;3.63;2.17;;;;;;;;;;5064237;28;42065;-70
2023/09/06 03:51:07;;;;;;;3.75;2.20;;;;;;;;;;5068976;28;41606;-70
2023/09/06 03:53:38;;;;;;;2.47;2.20;;;;;;;;;;5068687;28;40477;-70
2023/09/06 03:56:10;;;;;;;4.47;2.30;;;;;;;;;;5067408;28;41067;-70
2023/09/06 03:58:42;;;;;;;3.05;2.15;;;;;;;;;;5062619;28;43234;-70
2023/09/06 04:01:15;;;;;;;3.00;2.28;;;;;;;;;;5064535;28;39765;-70
2023/09/06 04:03:46;;;;;;;3.60;2.30;;;;;;;;;;5066936;28;40610;-70
2023/09/06 04:06:15;;;;;;;2.50;2.17;;;;;;;;;;5069216;28;40432;-70
2023/09/06 04:08:46;;;;;;;3.47;2.10;;;;;;;;;;5063300;28;41148;-70
2023/09/06 04:11:16;;;;;;;3.97;2.35;;;;;;;;;;5059456;28;41775;-70
2023/09/06 04:13:44;;;;;;;3.33;2.53;;;;;;;;;;5067484;28;38916;-70
2023/09/06 04:16:16;;;;;;;3.40;2.13;;;;;;;;;;5065266;28;41543;-70
2023/09/06 04:18:45;;;;;;;4.82;2.60;;;;;;;;;;5063936;28;41459;-70
2023/09/06 04:21:14;;;;;;;4.85;2.08;;;;;;;;;;5067815;28;40138;-70
2023/09/06 04:23:44;;;;;;;2.58;2.17;;;;;;;;;;5065837;28;40236;-70
2023/09/06 04:26:17;;;;;;;2.92;2.25;;;;;;;;;;5055136;28;39847;-70
2023/09/06 04:28:45;;;;;;;3.25;2.50;;;;;;;;;;5067296;28;40339;-70
2023/09/06 04:31:17;;;;;;;3.58;2.25;;;;;;;;;;5066264;28;41653;-69
2023/09/06 04:33:47;;;;;;;4.40;2.30;;;;;;;;;;5066722;28;38834;-70
2023/09/06 04:36:24;;;;;;;2.63;2.30;;;;;;;;;;5067626;28;41171;-70
2023/09/06 04:39:03;;;;;;;3.45;2.40;;;;;;;;;;5100368;28;40577;-70
2023/09/06 04:41:37;;;;;;;3.75;2.10;;;;;;;;;;5065955;28;40090;-70
2023/09/06 04:44:07;;;;;;;4.53;1.98;;;;;;;;;;5076016;28;41902;-70
2023/09/06 04:46:35;;;;;;;3.05;1.80;;;;;;;;;;5067486;28;41476;-70
2023/09/06 04:49:04;;;;;;;3.42;2.25;;;;;;;;;;5067658;28;40114;-70
2023/09/06 04:51:32;;;;;;;2.53;2.20;;;;;;;;;;5064434;28;40667;-69
2023/09/06 04:54:02;;;;;;;4.43;2.50;;;;;;;;;;5063729;28;41008;-70
2023/09/06 04:56:36;;;;;;;3.90;2.10;;;;;;;;;;5073169;28;40438;-71
2023/09/06 04:59:05;;;;;;;2.25;2.05;;;;;;;;;;5062334;28;40720;-70
2023/09/06 05:01:33;;;;;;;3.63;2.47;;;;;;;;;;5059433;28;38922;-71
2023/09/06 05:04:01;;;;;;;3.03;2.15;;;;;;;;;;5068193;28;42563;-71
2023/09/06 05:06:30;;;;;;;3.92;2.72;;;;;;;;;;5052378;28;41241;-71
2023/09/06 05:08:58;;;;;;;3.58;2.55;;;;;;;;;;5066870;28;40199;-70
2023/09/06 05:11:27;;;;;;;6.28;2.30;;;;;;;;;;5065765;28;41025;-70
2023/09/06 05:13:57;;;;;;;4.72;2.30;;;;;;;;;;5065342;28;38933;-71
2023/09/06 05:16:28;;;;;;;2.85;2.20;;;;;;;;;;5066138;28;40059;-70
2023/09/06 05:18:56;;;;;;;5.07;2.30;;;;;;;;;;5068167;28;42965;-70
2023/09/06 05:21:28;;;;;;;5.65;2.25;;;;;;;;;;5065299;28;39210;-71
2023/09/06 05:23:56;;;;;;;3.17;2.30;;;;;;;;;;5065691;28;40150;-70
2023/09/06 05:26:24;;;;;;;3.00;2.60;;;;;;;;;;5067269;28;42593;-70
2023/09/06 05:28:52;;;;;;;3.55;2.60;;;;;;;;;;5066415;28;39300;-71
2023/09/06 05:31:22;;;;;;;4.03;2.50;;;;;;;;;;5066634;28;42122;-72
2023/09/06 05:33:52;;;;;;;2.70;2.20;;;;;;;;;;5064603;28;40094;-72
2023/09/06 05:36:22;;;;;;;3.05;2.33;;;;;;;;;;5065537;28;40286;-71
2023/09/06 05:38:50;;;;;;;4.55;2.88;;;;;;;;;;5065784;28;41859;-72
2023/09/06 05:41:22;;;;;;;3.20;2.40;;;;;;;;;;5064837;28;38884;-71
2023/09/06 05:43:50;;;;;;;4.53;2.85;;;;;;;;;;5065953;28;41276;-71
2023/09/06 05:46:18;;;;;;;3.53;2.58;;;;;;;;;;5066188;28;41364;-71
2023/09/06 05:49:04;;;;;;;2.83;2.50;;;;;;;;;;5065548;28;39884;-71
2023/09/06 05:51:35;;;;;;;4.93;2.60;;;;;;;;;;5065955;28;41551;-71
2023/09/06 05:54:04;;;;;;;4.68;2.55;;;;;;;;;;5066233;28;39960;-71
2023/09/06 05:56:34;;;;;;;3.90;2.38;;;;;;;;;;5064790;28;41130;-71
2023/09/06 05:59:02;;;;;;;3.30;2.45;;;;;;;;;;5067579;28;42888;-72
2023/09/06 06:01:30;;;;;;;5.97;2.40;;;;;;;;;;5062073;28;40901;-70
2023/09/06 06:03:59;;;;;;;4.47;2.38;;;;;;;;;;5099882;28;40337;-72
2023/09/06 06:06:29;;;;;;;4.07;2.78;;;;;;;;;;5066768;28;42645;-72
2023/09/06 06:08:57;;;;;;;5.28;2.80;;;;;;;;;;5077574;28;39732;-72
2023/09/06 06:11:26;;;;;;;5.68;2.92;;;;;;;;;;5067010;28;42679;-71
2023/09/06 06:13:55;;;;;;;3.90;3.15;;;;;;;;;;5067550;28;34228;-71
2023/09/06 06:16:37;;;;;;;4.82;3.08;;;;;;;;;;5066054;28;41632;-72
2023/09/06 06:19:06;;;;;;;3.53;2.60;;;;;;;;;;5067188;28;42533;-71
2023/09/06 06:21:35;;;;;;;4.10;2.90;;;;;;;;;;5064168;28;40210;-71
2023/09/06 06:24:03;;;;;;;3.63;3.03;;;;;;;;;;5055540;28;43219;-71
2023/09/06 06:26:31;;;;;;;4.57;2.83;;;;;;;;;;5057529;28;42039;-71
2023/09/06 06:29:00;;;;;;;5.65;2.85;;;;;;;;;;5067177;28;40360;-71
2023/09/06 06:31:28;;;;;;;4.07;2.60;;;;;;;;;;5065600;28;41781;-72
2023/09/06 06:33:57;;;;;;;4.47;2.80;;;;;;;;;;5053874;28;43057;-71
2023/09/06 06:36:25;;;;;;;5.90;2.75;;;;;;;;;;5066249;28;41611;-71
2023/09/06 06:38:56;;;;;;;6.30;3.17;;;;;;;;;;5066286;28;41579;-71
2023/09/06 06:41:25;;;;;;;2.85;2.42;;;;;;;;;;5063689;28;41337;-72
2023/09/06 06:43:53;;;;;;;6.78;3.00;;;;;;;;;;5068376;28;42563;-72
2023/09/06 06:46:24;;;;;;;3.58;2.42;;;;;;;;;;5070216;28;42036;-71
2023/09/06 06:48:53;;;;;;;6.32;2.80;;;;;;;;;;5064229;28;42360;-71
2023/09/06 06:51:22;;;;;;;5.03;2.67;;;;;;;;;;5064890;28;41734;-71
2023/09/06 06:53:50;;;;;;;4.72;3.17;;;;;;;;;;5070035;28;42097;-71
2023/09/06 06:56:21;;;;;;;4.93;3.20;;;;;;;;;;5070005;28;40205;-72
2023/09/06 06:58:50;;;;;;;4.70;2.80;;;;;;;;;;5069213;28;42694;-71
2023/09/06 07:01:18;;;;;;;3.50;2.65;;;;;;;;;;5069951;28;40224;-71
2023/09/06 07:03:46;;;;;;;5.20;2.90;;;;;;;;;;5068086;28;41776;-71
2023/09/06 07:06:15;;;;;;;2.90;2.60;;;;;;;;;;5056650;28;43209;-71
2023/09/06 07:08:43;;;;;;;3.78;2.90;;;;;;;;;;5069305;28;40407;-71
2023/09/06 07:11:11;;;;;;;3.92;2.78;;;;;;;;;;5069537;28;41482;-71
2023/09/06 07:13:43;;;;;;;4.35;3.03;;;;;;;;;;5065913;28;42901;-71
2023/09/06 07:16:11;;;;;;;3.47;2.90;;;;;;;;;;5069794;28;40445;-71
2023/09/06 07:18:39;;;;;;;3.00;2.70;;;;;;;;;;5066148;28;40997;-71
2023/09/06 07:21:07;;;;;;;4.28;2.92;;;;;;;;;;5061539;28;39370;-71
2023/09/06 07:23:35;;;;;;;5.93;3.15;;;;;;;;;;5067502;28;41588;-71
2023/09/06 07:26:04;;;;;;;5.38;4.03;;;;;;;;;;5066702;28;43167;-71
2023/09/06 07:28:39;;;;;;;9.65;4.90;;;;;;;;;;5069083;28;41645;-71
2023/09/06 07:31:09;;;;;;;6.30;4.22;;;;;;;;;;5066786;28;42191;-71
2023/09/06 07:33:38;;;;;;;7.22;4.45;;;;;;;;;;5068225;28;43191;-71
2023/09/06 07:36:06;;;;;;;11.20;5.35;;;;;;;;;;5068671;28;40292;-71
2023/09/06 07:38:34;;;;;;;8.38;4.72;;;;;;;;;;5068843;28;41107;-71
2023/09/06 07:41:03;;;;;;;6.43;4.18;;;;;;;;;;5069042;28;42759;-71
2023/09/06 07:43:31;;;;;;;8.13;4.80;;;;;;;;;;5066512;28;41972;-70
2023/09/06 07:45:59;;;;;;;10.27;4.65;;;;;;;;;;5069008;28;42064;-73
2023/09/06 07:48:29;;;;;;;6.00;4.70;;;;;;;;;;5067701;28;41180;-71
2023/09/06 07:50:58;;;;;;;8.77;4.43;;;;;;;;;;5067870;28;40737;-71
2023/09/06 07:53:26;;;;;;;10.20;4.60;;;;;;;;;;5068223;28;41595;-71
2023/09/06 07:55:55;;;;;;;7.30;4.38;;;;;;;;;;5068209;28;40789;-71
2023/09/06 07:58:23;;;;;;;6.20;3.88;;;;;;;;;;5068936;28;41000;-71
2023/09/06 08:00:51;;;;;;;7.38;3.88;;;;;;;;;;5062996;28;42139;-71
2023/09/06 08:03:41;;;;;;;5.75;3.45;;;;;;;;;;5064437;28;40644;-71
2023/09/06 08:06:09;;;;;;;6.60;3.58;;;;;;;;;;5068282;28;42745;-71
2023/09/06 08:08:37;;;;;;;3.75;3.08;;;;;;;;;;5066946;28;40326;-71
2023/09/06 08:11:06;;;;;;;6.00;3.42;;;;;;;;;;5057592;28;41577;-71
2023/09/06 08:13:34;;;;;;;7.22;3.65;;;;;;;;;;5064767;28;42125;-70
2023/09/06 08:16:02;;;;;;;8.05;3.92;;;;;;;;;;5061946;28;40901;-71
2023/09/06 08:18:30;;;;;;;9.00;3.25;;;;;;;;;;5067882;28;41314;-70
2023/09/06 08:21:00;;;;;;;5.32;3.08;;;;;;;;;;5064788;28;43191;-71
2023/09/06 08:23:29;;;;;;;5.47;3.00;;;;;;;;;;5055988;28;43423;-70
2023/09/06 08:25:57;;;;;;;6.65;3.58;;;;;;;;;;5065513;28;40852;-71
2023/09/06 08:28:25;;;;;;;4.90;3.15;;;;;;;;;;5050289;28;41890;-71
2023/09/06 08:30:53;;;;;;;5.35;3.25;;;;;;;;;;5050176;28;42500;-72
2023/09/06 08:33:22;;;;;;;7.72;3.40;;;;;;;;;;5050152;28;41006;-71
2023/09/06 08:35:50;;;;;;;6.55;3.70;;;;;;;;;;5048667;28;40414;-71
2023/09/06 08:38:19;;;;;;;5.85;3.13;;;;;;;;;;5050042;28;42098;-72
2023/09/06 08:40:47;;;;;;;7.50;3.38;;;;;;;;;;5057804;28;42963;-73
2023/09/06 08:43:16;;;;;;;9.75;3.60;;;;;;;;;;5068331;28;41383;-71
2023/09/06 08:45:44;;;;;;;4.53;3.33;;;;;;;;;;5067094;28;42782;-72
2023/09/06 08:48:12;;;;;;;8.60;2.88;;;;;;;;;;5067731;28;40184;-70
2023/09/06 08:50:40;;;;;;;3.42;3.08;;;;;;;;;;5065999;28;41131;-71
2023/09/06 08:53:10;;;;;;;7.18;3.40;;;;;;;;;;5062644;28;42709;-71
2023/09/06 08:55:40;;;;;;;5.45;3.10;;;;;;;;;;5065524;28;39320;-71
2023/09/06 08:58:08;;;;;;;5.00;3.30;;;;;;;;;;5065235;28;42304;-70
2023/09/06 09:00:36;;;;;;;8.10;3.20;;;;;;;;;;5065290;28;43047;-71
2023/09/06 09:03:04;;;;;;;4.63;3.30;;;;;;;;;;5065545;28;41850;-70
2023/09/06 09:05:32;;;;;;;4.30;3.50;;;;;;;;;;5064804;28;41662;-70
2023/09/06 09:08:01;;;;;;;6.28;3.25;;;;;;;;;;5068481;28;42013;-70
2023/09/06 09:10:31;;;;;;;5.43;3.70;;;;;;;;;;5065770;28;41551;-69
2023/09/06 09:13:02;;;;;;;4.78;3.40;;;;;;;;;;5064052;28;42103;-70
2023/09/06 09:15:30;;;;;;;5.78;3.10;;;;;;;;;;5066625;28;40311;-71
2023/09/06 09:17:58;;;;;;;4.00;2.92;;;;;;;;;;5098889;28;39809;-71
2023/09/06 09:20:31;;;;;;;4.53;3.35;;;;;;;;;;5065350;28;41686;-72
2023/09/06 09:23:01;;;;;;;6.28;3.95;;;;;;;;;;5057502;28;40438;-71
2023/09/06 09:25:31;;;;;;;6.53;3.65;;;;;;;;;;5067403;28;20770;-71
2023/09/06 09:27:59;;;;;;;7.05;3.42;;;;;;;;;;5057612;28;42862;-71
2023/09/06 09:30:30;;;;;;;5.10;3.70;;;;;;;;;;5067488;28;41220;-72
2023/09/06 09:32:59;;;;;;;8.15;3.00;;;;;;;;;;5064203;28;42356;-79
2023/09/06 09:35:28;;;;;;;5.13;3.15;;;;;;;;;;5064503;28;40052;-70
2023/09/06 09:37:56;;;;;;;9.38;3.40;;;;;;;;;;5067255;28;42537;-71
2023/09/06 09:40:32;;;;;;;5.07;3.30;;;;;;;;;;5066133;28;40821;-70
2023/09/06 09:43:17;;;;;;;5.15;3.80;;;;;;;;;;5067039;28;40473;-70
2023/09/06 09:45:46;;;;;;;4.88;3.50;;;;;;;;;;5067822;28;41275;-71
2023/09/06 09:48:16;;;;;;;5.68;3.55;;;;;;;;;;5064367;28;43741;-71
2023/09/06 09:50:46;;;;;;;6.05;3.80;;;;;;;;;;5059032;28;40037;-71
2023/09/06 09:53:15;;;;;;;7.47;4.07;;;;;;;;;;5068581;28;41251;-71
2023/09/06 09:56:04;;;;;;;4.85;3.80;;;;;;;;;;5059467;28;40496;-70
2023/09/06 09:58:33;;;;;;;15.93;4.00;;;;;;;;;;5066496;28;42689;-70
2023/09/06 10:01:05;;;;;;;7.00;4.45;;;;;;;;;;5066666;28;42965;-70
2023/09/06 10:03:33;;;;;;;6.50;4.53;;;;;;;;;;5064093;28;40708;-70
2023/09/06 10:06:03;;;;;;;8.00;4.15;;;;;;;;;;5067440;28;41689;-71
2023/09/06 10:08:32;;;;;;;5.15;4.38;;;;;;;;;;5065718;28;41209;-69
2023/09/06 10:11:00;;;;;;;5.32;3.97;;;;;;;;;;5066818;28;40265;-71
2023/09/06 10:13:28;;;;;;;8.05;4.63;;;;;;;;;;5067221;28;41000;-70
2023/09/06 10:15:56;;;;;;;7.50;4.13;;;;;;;;;;5066816;28;42202;-70
2023/09/06 10:18:26;;;;;;;7.85;3.70;;;;;;;;;;5064369;28;41312;-71
2023/09/06 10:20:54;;;;;;;6.15;4.35;;;;;;;;;;5069855;28;43002;-71
2023/09/06 10:23:23;;;;;;;5.80;4.07;;;;;;;;;;5068815;28;41369;-71
2023/09/06 10:25:51;;;;;;;6.95;3.80;;;;;;;;;;5069072;28;42003;-70
2023/09/06 10:28:20;;;;;;;4.70;3.53;;;;;;;;;;5069423;28;43967;-70
2023/09/06 10:30:48;;;;;;;5.43;3.90;;;;;;;;;;5067381;28;40130;-70
2023/09/06 10:33:35;;;;;;;4.78;3.70;;;;;;;;;;5070629;28;41883;-71
2023/09/06 10:36:08;;;;;;;4.40;3.55;;;;;;;;;;5065939;28;42141;-70
2023/09/06 10:38:42;;;;;;;4.95;3.60;;;;;;;;;;5067352;28;41835;-71
2023/09/06 10:41:10;;;;;;;4.03;3.30;;;;;;;;;;5067369;28;41937;-71
2023/09/06 10:43:55;;;;;;;4.88;3.22;;;;;;;;;;5067079;28;42345;-71
2023/09/06 10:46:27;;;;;;;4.22;3.55;;;;;;;;;;5065864;28;42317;-71
2023/09/06 10:49:14;;;;;;;4.80;4.03;;;;;;;;;;5069925;28;42497;-70
2023/09/06 10:52:00;;;;;;;5.70;5.05;;;;;;;;;;5067639;28;39985;-71
2023/09/06 10:54:35;;;;;;;7.13;4.88;;;;;;;;;;5065461;28;42430;-71
2023/09/06 10:57:05;;;;;;;6.18;4.57;;;;;;;;;;5060111;28;42189;-72
2023/09/06 10:59:37;;;;;;;5.72;4.40;;;;;;;;;;5091599;28;38488;-71
2023/09/06 11:02:08;;;;;;;6.53;4.13;;;;;;;;;;5067144;28;42173;-71
2023/09/06 11:04:37;;;;;;;7.22;4.45;;;;;;;;;;5064586;28;40080;-71
2023/09/06 11:07:09;;;;;;;7.65;4.80;;;;;;;;;;5066862;28;41438;-71
2023/09/06 11:09:43;;;;;;;6.00;3.97;;;;;;;;;;5066083;28;42217;-71
2023/09/06 11:12:11;;;;;;;8.52;4.65;;;;;;;;;;5065245;28;41366;-71
2023/09/06 11:14:39;;;;;;;7.82;4.32;;;;;;;;;;5069352;28;41301;-71
2023/09/06 11:17:07;;;;;;;6.53;4.25;;;;;;;;;;5068959;28;42282;-71
2023/09/06 11:19:36;;;;;;;11.95;4.50;;;;;;;;;;5064900;28;40599;-71
2023/09/06 11:22:07;;;;;;;5.00;3.45;;;;;;;;;;5058781;28;41418;-70
2023/09/06 11:24:35;;;;;;;5.93;4.30;;;;;;;;;;5057903;28;40563;-71
2023/09/06 11:27:16;;;;;;;7.82;4.28;;;;;;;;;;5058442;28;42201;-71
2023/09/06 11:29:44;;;;;;;3.80;3.42;;;;;;;;;;5059953;28;42130;-70
2023/09/06 11:32:13;;;;;;;4.30;3.38;;;;;;;;;;5064983;28;41504;-71
2023/09/06 11:34:42;;;;;;;5.07;3.35;;;;;;;;;;5062087;28;41149;-71
2023/09/06 11:37:15;;;;;;;8.30;4.20;;;;;;;;;;5061574;28;41618;-71
2023/09/06 11:39:43;;;;;;;4.80;3.92;;;;;;;;;;5066058;28;40935;-71
2023/09/06 11:42:13;;;;;;;5.15;3.42;;;;;;;;;;5068374;28;42019;-70
2023/09/06 11:44:47;;;;;;;4.22;3.83;;;;;;;;;;5067625;28;41747;-71
2023/09/06 11:47:16;;;;;;;7.15;3.70;;;;;;;;;;5065606;28;42322;-71
2023/09/06 11:49:45;;;;;;;5.72;3.15;;;;;;;;;;5068344;28;43078;-71
2023/09/06 11:52:16;;;;;;;5.22;3.40;;;;;;;;;;5059615;28;41087;-71
2023/09/06 11:54:47;;;;;;;3.35;3.03;;;;;;;;;;5067586;28;42277;-71
2023/09/06 11:57:22;;;;;;;4.70;3.72;;;;;;;;;;5068170;28;41419;-71
2023/09/06 11:59:57;;;;;;;4.75;3.70;;;;;;;;;;5065078;28;41461;-71
2023/09/06 12:02:26;;;;;;;6.13;3.45;;;;;;;;;;5067840;28;41541;-70
2023/09/06 12:05:00;;;;;;;4.40;3.70;;;;;;;;;;5068831;28;42712;-71
2023/09/06 12:07:29;;;;;;;5.07;3.28;;;;;;;;;;5067205;28;41211;-71
2023/09/06 12:09:57;;;;;;;7.65;3.50;;;;;;;;;;5068122;28;43276;-71
2023/09/06 12:12:26;;;;;;;4.43;3.40;;;;;;;;;;5067873;28;40959;-71
2023/09/06 12:14:54;;;;;;;4.68;3.42;;;;;;;;;;5059849;28;41949;-70
2023/09/06 12:17:24;;;;;;;4.25;3.78;;;;;;;;;;5067981;28;41736;-71
2023/09/06 12:19:58;;;;;;;4.45;3.40;;;;;;;;;;5068483;28;39975;-70
2023/09/06 12:22:26;;;;;;;3.42;3.10;;;;;;;;;;5065385;28;41600;-70
2023/09/06 12:24:55;;;;;;;6.70;3.40;;;;;;;;;;5068121;28;42453;-70
2023/09/06 12:27:28;;;;;;;5.60;3.83;;;;;;;;;;5067975;28;41679;-74
2023/09/06 12:29:56;;;;;;;4.05;3.00;;;;;;;;;;5065398;28;41776;-73
2023/09/06 12:32:25;;;;;;;4.03;3.60;;;;;;;;;;5066682;28;40081;-73
2023/09/06 12:34:53;;;;;;;3.75;3.20;;;;;;;;;;5068264;28;41542;-73
2023/09/06 12:37:21;;;;;;;6.50;3.88;;;;;;;;;;5067111;28;42074;-73
2023/09/06 12:39:49;;;;;;;4.72;3.88;;;;;;;;;;5063830;28;40424;-71
2023/09/06 12:42:18;;;;;;;4.68;3.20;;;;;;;;;;5058548;28;41605;-74
2023/09/06 12:44:47;;;;;;;4.93;3.60;;;;;;;;;;5064907;28;42187;-73
2023/09/06 12:47:16;;;;;;;5.05;3.60;;;;;;;;;;5067212;28;40297;-73
2023/09/06 12:49:44;;;;;;;7.00;3.70;;;;;;;;;;5066751;28;41660;-73
2023/09/06 12:52:16;;;;;;;4.93;3.42;;;;;;;;;;5068946;28;41324;-74
2023/09/06 12:54:44;;;;;;;6.03;3.70;;;;;;;;;;5060879;28;42680;-75
2023/09/06 12:57:12;;;;;;;3.90;2.85;;;;;;;;;;5064574;28;42376;-74
2023/09/06 12:59:41;;;;;;;4.75;3.50;;;;;;;;;;5068156;28;40432;-75
2023/09/06 13:02:09;;;;;;;6.05;3.63;;;;;;;;;;5059775;28;41670;-73
2023/09/06 13:04:37;;;;;;;4.78;3.08;;;;;;;;;;5067350;28;42350;-72
2023/09/06 13:07:06;;;;;;;4.55;3.22;;;;;;;;;;5068640;28;39741;-73
2023/09/06 13:09:34;;;;;;;4.10;3.60;;;;;;;;;;5060796;28;41861;-73
2023/09/06 13:12:02;;;;;;;5.90;3.28;;;;;;;;;;5061759;28;42090;-72
2023/09/06 13:14:30;;;;;;;4.53;3.50;;;;;;;;;;5066514;28;41530;-74
2023/09/06 13:16:59;;;;;;;5.85;3.00;;;;;;;;;;5068457;28;41818;-73
2023/09/06 13:19:27;;;;;;;5.82;3.08;;;;;;;;;;5066789;28;39745;-73
2023/09/06 13:21:55;;;;;;;6.63;3.33;;;;;;;;;;5062348;28;42603;-70
2023/09/06 13:24:24;;;;;;;5.13;3.30;;;;;;;;;;5064895;28;42101;-71
2023/09/06 13:26:53;;;;;;;5.97;3.10;;;;;;;;;;5067521;28;40558;-71
2023/09/06 13:29:21;;;;;;;4.05;3.10;;;;;;;;;;5067909;28;42485;-72
2023/09/06 13:31:51;;;;;;;6.35;2.88;;;;;;;;;;5065333;28;41972;-72
2023/09/06 13:34:20;;;;;;;3.30;3.00;;;;;;;;;;5068232;28;40654;-74
2023/09/06 13:36:48;;;;;;;3.53;3.08;;;;;;;;;;5062036;28;41999;-72
2023/09/06 13:39:17;;;;;;;3.53;2.90;;;;;;;;;;5067222;28;42162;-71
2023/09/06 13:41:47;;;;;;;4.88;2.83;;;;;;;;;;5055073;28;42386;-69
2023/09/06 13:44:15;;;;;;;5.47;3.00;;;;;;;;;;5065280;28;42925;-69
2023/09/06 13:46:43;;;;;;;4.32;3.00;;;;;;;;;;5064795;28;40069;-69
2023/09/06 13:49:11;;;;;;;7.53;3.00;;;;;;;;;;5067618;28;41874;-70
2023/09/06 13:51:40;;;;;;;4.03;2.80;;;;;;;;;;5066874;28;41937;-69
2023/09/06 13:54:08;;;;;;;4.22;3.15;;;;;;;;;;5070582;28;41560;-69
2023/09/06 13:56:36;;;;;;;3.80;2.65;;;;;;;;;;5070861;28;42430;-69
2023/09/06 13:59:04;;;;;;;4.88;2.63;;;;;;;;;;5065215;28;41008;-69
2023/09/06 14:01:32;;;;;;;3.92;3.10;;;;;;;;;;5069212;28;41566;-69
2023/09/06 14:04:01;;;;;;;4.88;2.72;;;;;;;;;;5070404;28;42312;-69
2023/09/06 14:06:29;;;;;;;3.53;3.22;;;;;;;;;;5069517;28;39075;-69
2023/09/06 14:08:58;;;;;;;3.35;2.72;;;;;;;;;;5070109;28;42943;-70
2023/09/06 14:11:26;;;;;;;4.80;2.53;;;;;;;;;;5070092;28;43403;-69
2023/09/06 14:13:54;;;;;;;2.88;2.58;;;;;;;;;;5068638;28;39966;-69
2023/09/06 14:16:23;;;;;;;5.70;2.90;;;;;;;;;;5070923;28;42773;-69
2023/09/06 14:18:51;;;;;;;3.35;2.83;;;;;;;;;;5070160;28;41664;-69
2023/09/06 14:21:20;;;;;;;4.70;2.90;;;;;;;;;;5069999;28;42281;-69
2023/09/06 14:23:49;;;;;;;6.85;3.03;;;;;;;;;;5069519;28;42806;-69
2023/09/06 14:26:18;;;;;;;6.05;2.90;;;;;;;;;;5070588;28;41104;-69
2023/09/06 14:28:46;;;;;;;4.18;2.70;;;;;;;;;;5069974;28;42171;-69
2023/09/06 14:31:14;;;;;;;6.95;2.85;;;;;;;;;;5070221;28;43351;-69
2023/09/06 14:33:42;;;;;;;4.25;2.60;;;;;;;;;;5070243;28;41397;-69
2023/09/06 14:36:10;;;;;;;3.28;2.58;;;;;;;;;;5066505;28;41844;-69
2023/09/06 14:38:38;;;;;;;5.95;2.50;;;;;;;;;;5062750;28;42407;-72
2023/09/06 14:41:07;;;;;;;4.45;2.75;;;;;;;;;;5070546;28;40113;-69
2023/09/06 14:43:36;;;;;;;3.60;2.90;;;;;;;;;;5069060;28;42414;-69
2023/09/06 14:46:06;;;;;;;3.60;2.65;;;;;;;;;;5064108;28;41160;-69
2023/09/06 14:48:34;;;;;;;7.05;2.42;;;;;;;;;;5069973;28;41741;-69
2023/09/06 14:51:03;;;;;;;4.80;2.50;;;;;;;;;;5069136;28;42707;-69
2023/09/06 14:53:32;;;;;;;3.78;2.58;;;;;;;;;;5069684;28;42127;-69
2023/09/06 14:56:00;;;;;;;3.13;2.50;;;;;;;;;;5070304;28;42806;-69
2023/09/06 14:58:29;;;;;;;7.30;2.75;;;;;;;;;;5068985;28;42302;-70